Time;durP1;ratioP1;P1;durP2;ratioP2;P2;SDS_P1;SDS_P2;PMS_P1;PMS_P2;Temp;Humidity;BMP_temperature;BMP_pressure;BME280_temperature;BME280_humidity;BME280_pressure;Samples;Min_cycle;Max_cycle;Signal;HPM_P1;HPM_P2
2022/02/08 00:00:01;;;;;;;13.27;2.10;;;3.30;91.30;;;;;;4993556;28;20025;-71
2022/02/08 00:02:29;;;;;;;8.50;1.80;;;3.40;91.20;;;;;;4991638;28;20033;-72
2022/02/08 00:04:54;;;;;;;7.68;2.20;;;3.40;91.30;;;;;;4993397;28;20018;-72
2022/02/08 00:07:20;;;;;;;13.75;2.58;;;3.40;91.20;;;;;;4991183;28;20065;-71
2022/02/08 00:09:45;;;;;;;11.15;1.90;;;3.30;91.10;;;;;;4992112;28;20057;-71
2022/02/08 00:12:11;;;;;;;8.98;1.88;;;3.30;91.10;;;;;;4987979;28;20390;-71
2022/02/08 00:14:36;;;;;;;7.22;1.92;;;3.40;91.20;;;;;;4984902;28;20053;-71
2022/02/08 00:17:02;;;;;;;3.78;1.33;;;3.30;91.10;;;;;;4992152;28;20093;-71
2022/02/08 00:19:28;;;;;;;13.63;2.60;;;3.40;91.10;;;;;;4992971;28;20038;-72
2022/02/08 00:21:54;;;;;;;13.10;2.20;;;3.40;90.90;;;;;;4990878;28;20026;-72
2022/02/08 00:24:20;;;;;;;13.70;1.90;;;3.40;90.80;;;;;;4997658;28;20369;-71
2022/02/08 00:26:45;;;;;;;11.77;2.05;;;3.40;90.70;;;;;;4994601;28;20034;-72
2022/02/08 00:29:11;;;;;;;11.32;1.85;;;3.40;90.60;;;;;;4991064;28;20473;-72
2022/02/08 00:31:36;;;;;;;15.63;2.55;;;3.40;90.70;;;;;;4988032;28;20621;-71
2022/02/08 00:34:02;;;;;;;11.80;1.77;;;3.40;90.70;;;;;;4987853;28;20030;-71
2022/02/08 00:36:27;;;;;;;12.55;2.03;;;3.40;90.30;;;;;;4990888;28;20058;-71
2022/02/08 00:38:54;;;;;;;10.02;1.73;;;3.50;90.10;;;;;;4992441;28;20030;-71
2022/02/08 00:41:21;;;;;;;16.77;2.60;;;3.40;90.30;;;;;;4993793;28;20125;-72
2022/02/08 00:43:53;;;;;;;12.02;2.00;;;3.40;90.40;;;;;;4993159;28;20022;-71
2022/02/08 00:46:29;;;;;;;9.60;1.20;;;3.50;90.20;;;;;;4995663;28;20065;-72
2022/02/08 00:48:58;;;;;;;10.98;2.08;;;3.50;90.10;;;;;;4991625;28;20026;-71
2022/02/08 00:51:26;;;;;;;8.93;1.60;;;3.50;90.10;;;;;;4985431;28;20125;-71
2022/02/08 00:53:52;;;;;;;10.75;1.77;;;3.50;89.90;;;;;;4993682;28;20061;-72
2022/02/08 00:56:18;;;;;;;10.25;1.80;;;3.50;89.70;;;;;;4995146;28;20478;-71
2022/02/08 00:58:43;;;;;;;12.52;2.15;;;3.50;89.50;;;;;;4990089;28;20034;-71
2022/02/08 01:01:09;;;;;;;10.65;2.08;;;3.50;89.50;;;;;;5001663;28;20038;-72
2022/02/08 01:03:34;;;;;;;12.70;1.70;;;3.50;89.50;;;;;;4999344;28;20037;-71
2022/02/08 01:06:05;;;;;;;7.90;2.10;;;3.50;89.50;;;;;;4993873;28;20022;-72
2022/02/08 01:08:34;;;;;;;13.02;1.98;;;3.50;89.40;;;;;;4991444;28;20026;-72
2022/02/08 01:11:00;;;;;;;10.55;1.85;;;3.50;89.70;;;;;;4991420;28;20027;-72
2022/02/08 01:13:27;;;;;;;12.02;1.92;;;3.50;89.60;;;;;;4991942;28;20030;-71
2022/02/08 01:15:55;;;;;;;8.82;1.88;;;3.50;89.30;;;;;;4989937;28;20113;-72
2022/02/08 01:18:21;;;;;;;7.82;1.67;;;3.50;89.40;;;;;;4988336;28;20605;-72
2022/02/08 01:20:46;;;;;;;9.80;1.90;;;3.60;89.50;;;;;;4988910;28;20038;-72
2022/02/08 01:23:12;;;;;;;9.60;2.20;;;3.60;89.50;;;;;;4993789;28;20049;-72
2022/02/08 01:25:46;;;;;;;10.52;1.98;;;3.60;89.30;;;;;;4984496;28;20026;-71
2022/02/08 01:31:10;;;;;;;5.97;2.28;;;3.60;89.20;;;;;;4975573;28;20078;-71
2022/02/08 01:42:40;;;;;;;7.13;2.00;;;3.70;89.20;;;;;;5001307;28;20041;-71
2022/02/08 01:51:55;;;;;;;9.05;2.17;;;3.60;89.80;;;;;;4990421;28;20117;-72
2022/02/08 01:54:21;;;;;;;12.15;2.45;;;3.70;89.80;;;;;;4993039;28;20339;-71
2022/02/08 01:56:48;;;;;;;11.55;2.22;;;3.70;89.90;;;;;;4995173;28;20111;-72
2022/02/08 01:59:14;;;;;;;9.40;3.13;;;3.70;90.20;;;;;;4993666;28;20033;-72
2022/02/08 02:01:40;;;;;;;8.70;2.15;;;3.70;90.30;;;;;;4994939;28;20030;-71
2022/02/08 02:04:05;;;;;;;13.25;2.45;;;3.70;90.40;;;;;;4990283;28;20437;-71
2022/02/08 02:06:31;;;;;;;8.18;2.47;;;3.70;90.30;;;;;;4984474;28;20421;-71
2022/02/08 02:08:57;;;;;;;13.63;3.00;;;3.70;90.40;;;;;;4991353;28;20370;-72
2022/02/08 02:11:22;;;;;;;13.48;3.35;;;3.80;90.60;;;;;;4988701;28;20156;-72
2022/02/08 02:13:50;;;;;;;13.00;2.72;;;3.80;90.80;;;;;;4983635;28;20030;-71
2022/02/08 02:16:27;;;;;;;12.10;2.83;;;3.80;91.00;;;;;;4999098;28;20498;-71
2022/02/08 02:18:52;;;;;;;14.48;3.15;;;3.90;91.00;;;;;;4995111;28;20072;-71
2022/02/08 02:21:18;;;;;;;12.60;3.00;;;3.80;91.00;;;;;;4989765;28;20446;-72
2022/02/08 02:23:48;;;;;;;10.25;3.03;;;3.90;91.20;;;;;;4989929;28;20022;-71
2022/02/08 02:26:14;;;;;;;12.87;3.33;;;3.90;91.30;;;;;;4985888;28;20060;-72
2022/02/08 02:28:40;;;;;;;11.35;3.58;;;3.90;91.70;;;;;;4995357;28;20285;-72
2022/02/08 02:31:05;;;;;;;12.82;3.60;;;3.80;91.90;;;;;;4994734;28;20038;-71
2022/02/08 02:33:31;;;;;;;17.17;3.47;;;3.90;92.20;;;;;;4991721;28;20026;-72
2022/02/08 02:35:56;;;;;;;10.80;3.10;;;3.80;92.40;;;;;;4995142;28;20085;-71
2022/02/08 02:38:24;;;;;;;13.05;4.13;;;3.90;92.60;;;;;;4989234;28;20101;-71
2022/02/08 02:40:50;;;;;;;14.27;4.43;;;3.80;92.90;;;;;;4997227;28;20031;-72
2022/02/08 02:43:16;;;;;;;11.25;4.22;;;3.90;93.40;;;;;;4999462;28;20019;-71
2022/02/08 02:45:42;;;;;;;18.33;4.68;;;3.80;93.60;;;;;;4994501;28;20536;-72
2022/02/08 02:48:07;;;;;;;18.15;5.43;;;3.90;94.00;;;;;;5005195;28;20032;-71
2022/02/08 02:50:33;;;;;;;14.77;4.25;;;3.80;94.00;;;;;;4997488;28;20417;-71
2022/02/08 02:52:59;;;;;;;16.77;6.13;;;3.90;94.10;;;;;;4992782;28;20026;-71
2022/02/08 02:55:27;;;;;;;13.32;5.50;;;3.90;94.20;;;;;;4993599;28;20450;-71
2022/02/08 02:57:54;;;;;;;18.88;5.70;;;3.90;94.30;;;;;;4997522;28;20338;-72
2022/02/08 03:01:13;;;;;;;18.02;6.43;;;4.00;94.40;;;;;;4990742;28;20073;-71
2022/02/08 03:03:27;;;;;;;16.13;6.40;;;4.00;94.50;;;;;;4992940;28;20042;-71
2022/02/08 03:19:15;;;;;;;20.35;7.90;;;4.20;94.30;;;;;;5003032;28;20531;-71
2022/02/08 03:21:40;;;;;;;27.65;9.07;;;4.30;94.20;;;;;;5002519;28;20034;-72
2022/02/08 03:24:08;;;;;;;20.77;7.95;;;4.30;94.10;;;;;;5001178;28;20478;-71
2022/02/08 03:26:33;;;;;;;26.27;9.02;;;4.40;94.00;;;;;;4993893;28;20521;-72
2022/02/08 03:28:59;;;;;;;28.25;9.02;;;4.40;94.00;;;;;;4997364;28;20105;-71
2022/02/08 03:31:24;;;;;;;29.38;9.23;;;4.40;94.10;;;;;;4998979;28;20041;-72
2022/02/08 03:33:50;;;;;;;28.65;10.82;;;4.40;94.30;;;;;;4993955;28;20327;-71
2022/02/08 03:36:16;;;;;;;26.02;10.35;;;4.40;94.50;;;;;;4997717;28;20300;-72
2022/02/08 03:38:45;;;;;;;25.05;10.55;;;4.40;94.80;;;;;;4983276;28;20033;-72
2022/02/08 03:41:11;;;;;;;22.92;9.50;;;4.40;95.00;;;;;;5004246;28;20031;-71
2022/02/08 03:43:41;;;;;;;21.90;10.60;;;4.50;95.20;;;;;;4985832;28;20106;-72
2022/02/08 03:46:12;;;;;;;19.65;9.30;;;4.50;95.30;;;;;;4994937;28;20022;-71
2022/02/08 03:48:40;;;;;;;22.63;10.20;;;4.50;95.50;;;;;;5001357;28;20022;-71
2022/02/08 03:51:12;;;;;;;26.02;12.13;;;4.50;95.60;;;;;;4989173;28;20033;-71
2022/02/08 03:53:43;;;;;;;24.90;12.98;;;4.50;95.60;;;;;;4992398;28;20033;-71
2022/02/08 03:56:10;;;;;;;25.83;12.45;;;4.50;95.60;;;;;;4995494;28;20076;-71
2022/02/08 03:58:37;;;;;;;36.85;14.80;;;4.50;95.70;;;;;;4998655;28;20418;-72
2022/02/08 04:03:36;;;;;;;24.23;12.52;;;4.50;95.70;;;;;;4990570;28;20049;-71
2022/02/08 04:06:03;;;;;;;29.88;13.32;;;4.60;95.60;;;;;;4984794;28;20553;-72
2022/02/08 04:08:30;;;;;;;30.58;13.43;;;4.60;95.60;;;;;;4992024;28;20023;-71
2022/02/08 04:10:59;;;;;;;32.97;15.10;;;4.60;95.60;;;;;;4992323;28;20089;-71
2022/02/08 04:13:36;;;;;;;31.48;13.68;;;4.60;95.60;;;;;;4991656;28;20026;-71
2022/02/08 04:37:54;;;;;;;32.45;15.90;;;4.80;96.10;;;;;;4979322;28;20038;-71
2022/02/08 04:43:07;;;;;;;29.50;14.52;;;4.80;96.20;;;;;;4989468;28;20816;-71
2022/02/08 04:45:42;;;;;;;32.17;15.52;;;4.80;96.30;;;;;;4988361;28;20477;-71
2022/02/08 04:48:41;;;;;;;18.65;11.45;;;4.80;96.30;;;;;;4986905;28;20029;-72
2022/02/08 04:50:55;;;;;;;25.42;13.93;;;4.90;96.40;;;;;;4989626;28;20100;-71
2022/02/08 04:53:31;;;;;;;26.48;15.50;;;4.90;96.30;;;;;;4987178;28;20060;-71
2022/02/08 04:56:07;;;;;;;24.83;13.20;;;4.90;96.40;;;;;;4980229;28;20019;-72
2022/02/08 04:58:41;;;;;;;20.85;12.60;;;5.00;96.50;;;;;;4978178;28;20027;-71
2022/02/08 05:01:18;;;;;;;23.15;13.80;;;5.00;96.50;;;;;;4978698;28;20037;-71
2022/02/08 05:41:46;;;;;;;34.90;18.48;;;5.50;96.80;;;;;;4987391;28;20088;-73
2022/02/08 05:44:28;;;;;;;35.63;16.70;;;5.40;96.80;;;;;;4993478;28;20030;-75
2022/02/08 05:46:54;;;;;;;28.10;15.88;;;5.50;96.90;;;;;;4980665;28;20029;-74
2022/02/08 05:49:25;;;;;;;30.27;14.55;;;5.50;96.90;;;;;;4980283;28;20027;-75
2022/02/08 05:54:19;;;;;;;33.42;17.02;;;5.50;97.00;;;;;;4997703;28;20029;-75
2022/02/08 05:56:49;;;;;;;37.38;20.02;;;5.50;97.00;;;;;;4990076;28;20462;-76
2022/02/08 05:59:14;;;;;;;38.25;19.75;;;5.50;97.00;;;;;;4990319;28;20029;-75
2022/02/08 06:01:40;;;;;;;44.33;20.20;;;5.60;97.10;;;;;;4985010;28;20410;-75
2022/02/08 06:04:08;;;;;;;43.22;19.88;;;5.60;97.20;;;;;;4979769;28;20501;-77
2022/02/08 06:06:33;;;;;;;40.92;20.50;;;5.60;97.20;;;;;;4981051;28;20030;-76
2022/02/08 06:08:59;;;;;;;41.97;22.20;;;5.60;97.30;;;;;;4984011;28;20366;-77
2022/02/08 06:11:26;;;;;;;39.83;22.05;;;5.60;97.30;;;;;;4986276;28;20363;-76
2022/02/08 06:13:52;;;;;;;45.03;21.58;;;5.60;97.30;;;;;;4978218;28;20030;-76
2022/02/08 06:16:19;;;;;;;50.13;23.02;;;5.60;97.40;;;;;;4986415;28;20125;-76
2022/02/08 06:18:45;;;;;;;35.08;18.92;;;5.60;97.40;;;;;;4987514;28;20022;-76
2022/02/08 06:21:11;;;;;;;38.42;18.30;;;5.70;97.50;;;;;;4979836;28;20042;-74
2022/02/08 06:23:37;;;;;;;53.60;23.13;;;5.70;97.50;;;;;;4988048;28;20105;-74
2022/02/08 06:26:03;;;;;;;50.05;22.67;;;5.70;97.50;;;;;;4982722;28;20034;-74
2022/02/08 06:28:28;;;;;;;51.15;24.50;;;5.70;97.50;;;;;;4979007;28;20034;-74
2022/02/08 06:30:54;;;;;;;43.50;20.83;;;5.80;97.60;;;;;;4980273;28;20022;-73
2022/02/08 06:33:20;;;;;;;58.20;24.17;;;5.80;97.60;;;;;;4986653;28;20733;-74
2022/02/08 06:35:46;;;;;;;57.30;24.45;;;5.80;97.60;;;;;;4988168;28;20369;-74
2022/02/08 06:38:14;;;;;;;45.67;23.40;;;5.90;97.60;;;;;;4978821;28;20038;-74
2022/02/08 06:40:42;;;;;;;41.97;18.98;;;5.90;97.70;;;;;;4986462;28;20110;-74
2022/02/08 06:43:08;;;;;;;53.70;24.73;;;6.00;97.60;;;;;;4987681;28;20370;-74
2022/02/08 06:45:34;;;;;;;53.53;22.75;;;6.00;97.60;;;;;;4986557;28;20033;-74
2022/02/08 06:48:03;;;;;;;44.67;22.15;;;6.00;97.60;;;;;;4985766;28;20085;-74
2022/02/08 06:50:28;;;;;;;30.77;16.38;;;6.00;97.60;;;;;;4985503;28;20079;-74
2022/02/08 06:52:54;;;;;;;38.50;18.80;;;6.10;97.60;;;;;;4991212;28;20472;-75
2022/02/08 06:55:20;;;;;;;52.05;24.13;;;6.10;97.60;;;;;;4991342;28;20022;-76
2022/02/08 07:00:18;;;;;;;55.63;24.00;;;6.10;97.60;;;;;;4980360;28;20489;-76
2022/02/08 07:02:44;;;;;;;49.72;23.92;;;6.20;97.50;;;;;;4990238;28;20081;-76
2022/02/08 07:05:09;;;;;;;53.47;25.00;;;6.20;97.50;;;;;;4988704;28;20070;-76
2022/02/08 07:07:35;;;;;;;50.05;24.70;;;6.20;97.50;;;;;;4982951;28;20033;-76
2022/02/08 07:10:03;;;;;;;54.35;25.23;;;6.20;97.50;;;;;;4983505;28;20022;-75
2022/02/08 07:12:31;;;;;;;46.60;24.90;;;6.30;97.50;;;;;;4989829;28;20121;-75
2022/02/08 07:14:57;;;;;;;48.13;22.60;;;6.30;97.40;;;;;;4982767;28;20043;-75
2022/02/08 07:17:23;;;;;;;56.10;27.17;;;6.30;97.40;;;;;;4983320;28;20084;-75
2022/02/08 07:19:48;;;;;;;45.45;21.05;;;6.40;97.30;;;;;;4990135;28;20468;-75
2022/02/08 07:22:14;;;;;;;43.83;24.35;;;6.40;97.30;;;;;;4989035;28;20042;-75
2022/02/08 07:24:39;;;;;;;46.67;23.40;;;6.40;97.20;;;;;;4990410;28;20062;-75
2022/02/08 07:27:06;;;;;;;44.50;21.20;;;6.50;97.10;;;;;;4989445;28;20062;-75
2022/02/08 07:29:33;;;;;;;38.80;23.08;;;6.50;97.10;;;;;;4990386;28;20035;-75
2022/02/08 07:32:01;;;;;;;41.25;23.75;;;6.50;97.10;;;;;;4973447;28;20490;-73
2022/02/08 07:34:38;;;;;;;48.33;22.05;;;6.60;97.00;;;;;;4989326;28;20026;-75
2022/02/08 07:37:13;;;;;;;37.67;20.88;;;6.60;96.80;;;;;;4988679;28;20339;-75
2022/02/08 07:39:43;;;;;;;43.42;21.05;;;6.60;96.70;;;;;;4986508;28;20535;-75
2022/02/08 07:42:08;;;;;;;41.05;22.10;;;6.70;96.70;;;;;;4992103;28;20032;-75
2022/02/08 07:44:34;;;;;;;37.75;21.02;;;6.70;96.70;;;;;;4998373;28;20018;-73
2022/02/08 07:47:00;;;;;;;42.42;22.67;;;6.70;96.60;;;;;;4988831;28;20438;-73
2022/02/08 07:49:26;;;;;;;41.28;21.92;;;6.70;96.60;;;;;;4989072;28;20029;-73
2022/02/08 07:51:52;;;;;;;39.30;21.75;;;6.80;96.50;;;;;;4986308;28;20069;-73
2022/02/08 07:54:17;;;;;;;41.28;21.20;;;6.80;96.50;;;;;;4991753;28;20027;-73
2022/02/08 07:56:43;;;;;;;38.95;21.80;;;6.70;96.50;;;;;;4995110;28;20065;-73
2022/02/08 07:59:08;;;;;;;42.72;22.50;;;6.80;96.50;;;;;;4988366;28;20031;-73
2022/02/08 08:01:34;;;;;;;41.10;22.17;;;6.80;96.50;;;;;;4990311;28;20065;-75
2022/02/08 08:03:59;;;;;;;39.13;19.13;;;6.80;96.60;;;;;;4990957;28;20077;-75
2022/02/08 08:06:25;;;;;;;39.25;20.88;;;6.80;96.50;;;;;;4981610;28;20116;-75
2022/02/08 08:08:51;;;;;;;43.60;23.15;;;6.80;96.50;;;;;;4992058;28;20033;-75
2022/02/08 08:11:21;;;;;;;41.03;21.33;;;6.90;96.60;;;;;;4992437;28;20438;-75
2022/02/08 08:16:29;;;;;;;35.88;21.98;;;6.90;96.70;;;;;;4988794;28;20050;-75
2022/02/08 08:19:36;;;;;;;39.28;22.42;;;6.90;96.70;;;;;;4988057;28;20049;-75
2022/02/08 08:21:47;;;;;;;38.33;22.45;;;6.90;96.80;;;;;;4982658;28;20042;-75
2022/02/08 08:24:13;;;;;;;46.08;23.00;;;6.90;96.90;;;;;;4988687;28;20026;-75
2022/02/08 08:26:39;;;;;;;39.72;22.75;;;6.90;97.00;;;;;;4983169;28;20027;-75
2022/02/08 08:29:05;;;;;;;45.97;22.10;;;6.90;97.10;;;;;;4990945;28;20065;-75
2022/02/08 08:31:30;;;;;;;45.92;22.65;;;6.90;97.10;;;;;;4991966;28;20046;-75
2022/02/08 08:33:56;;;;;;;48.78;24.00;;;6.90;97.20;;;;;;4990451;28;20042;-75
2022/02/08 08:36:22;;;;;;;48.15;23.33;;;6.90;97.30;;;;;;4988769;28;20089;-75
2022/02/08 08:38:52;;;;;;;42.20;21.48;;;7.00;97.30;;;;;;4978360;28;20018;-75
2022/02/08 08:41:25;;;;;;;46.22;23.10;;;6.90;97.30;;;;;;4988431;28;20034;-75
2022/02/08 08:51:52;;;;;;;41.67;22.13;;;7.00;97.50;;;;;;4989007;28;20077;-73
2022/02/08 08:54:18;;;;;;;46.28;23.52;;;7.00;97.50;;;;;;4980840;28;20038;-73
2022/02/08 08:56:46;;;;;;;42.17;21.92;;;7.10;97.60;;;;;;4990977;28;20101;-73
2022/02/08 08:59:13;;;;;;;55.70;23.88;;;7.10;97.70;;;;;;4978713;28;20027;-73
2022/02/08 09:01:39;;;;;;;38.95;22.38;;;7.10;97.60;;;;;;4985489;28;20046;-72
2022/02/08 09:04:06;;;;;;;46.20;22.85;;;7.10;97.70;;;;;;4986675;28;20041;-73
2022/02/08 09:06:33;;;;;;;34.92;21.33;;;7.20;97.70;;;;;;4980306;28;20085;-72
2022/02/08 09:08:59;;;;;;;38.47;17.05;;;7.20;97.70;;;;;;4987906;28;20474;-72
2022/02/08 09:14:08;;;;;;;33.53;20.52;;;7.30;97.80;;;;;;4976812;28;20026;-73
2022/02/08 09:16:44;;;;;;;34.80;19.20;;;7.30;97.80;;;;;;4981243;28;20069;-73
2022/02/08 09:20:21;;;;;;;32.72;18.25;;;7.40;97.80;;;;;;4990110;28;20245;-73
2022/02/08 09:22:26;;;;;;;34.85;18.35;;;7.40;97.80;;;;;;4974968;28;20042;-72
2022/02/08 09:25:13;;;;;;;37.90;18.33;;;7.50;97.90;;;;;;4990128;28;20041;-73
2022/02/08 09:30:18;;;;;;;39.63;18.17;;;7.60;97.90;;;;;;4982228;28;20027;-73
2022/02/08 09:35:11;;;;;;;32.17;17.35;;;7.60;97.80;;;;;;4989055;28;20065;-73
2022/02/08 09:37:38;;;;;;;32.05;16.85;;;7.70;97.80;;;;;;4980864;28;20037;-72
2022/02/08 09:40:06;;;;;;;26.50;15.20;;;7.70;97.90;;;;;;4981412;28;20458;-72
2022/02/08 09:42:32;;;;;;;24.35;11.80;;;7.80;97.80;;;;;;4985882;28;20030;-72
2022/02/08 09:44:59;;;;;;;31.80;15.23;;;7.80;97.80;;;;;;4989220;28;20026;-73
2022/02/08 09:48:08;;;;;;;22.70;12.90;;;7.80;97.80;;;;;;4989782;28;20026;-73
2022/02/08 09:50:22;;;;;;;22.90;12.15;;;7.90;97.70;;;;;;4989225;28;20041;-73
2022/02/08 09:52:54;;;;;;;22.33;10.88;;;7.90;97.70;;;;;;4984634;28;20358;-73
2022/02/08 09:55:21;;;;;;;21.60;9.05;;;7.90;97.70;;;;;;4989948;28;20501;-72
2022/02/08 09:57:47;;;;;;;13.85;6.93;;;8.00;97.70;;;;;;4995858;28;20089;-73
2022/02/08 10:00:14;;;;;;;20.23;8.98;;;8.00;97.60;;;;;;4983868;28;20061;-73
2022/02/08 10:02:39;;;;;;;18.67;8.05;;;8.00;97.60;;;;;;4995666;28;20085;-72
2022/02/08 10:05:08;;;;;;;20.90;8.60;;;8.00;97.50;;;;;;4971429;28;20034;-72
2022/02/08 10:07:35;;;;;;;21.40;8.30;;;8.00;97.50;;;;;;4984904;28;20032;-72
2022/02/08 10:10:02;;;;;;;20.95;8.27;;;8.00;97.50;;;;;;4981444;28;20065;-73
2022/02/08 10:12:47;;;;;;;18.98;8.23;;;8.00;97.50;;;;;;4984654;28;20038;-72
2022/02/08 10:19:00;;;;;;;14.07;8.45;;;8.10;97.30;;;;;;4983134;28;20047;-72
2022/02/08 10:23:29;;;;;;;13.77;6.85;;;8.10;97.20;;;;;;4984426;28;20493;-72
2022/02/08 10:26:06;;;;;;;13.48;7.53;;;8.10;97.20;;;;;;4986768;28;20023;-72
2022/02/08 10:29:01;;;;;;;13.63;6.75;;;8.10;97.20;;;;;;4987446;28;20034;-73
2022/02/08 10:31:58;;;;;;;16.98;7.63;;;8.10;97.10;;;;;;4980560;28;20023;-73
2022/02/08 10:37:50;;;;;;;13.93;6.30;;;8.10;97.00;;;;;;4991301;28;20044;-73
2022/02/08 10:40:19;;;;;;;14.85;6.15;;;8.10;97.00;;;;;;4984026;28;20058;-73
2022/02/08 10:42:55;;;;;;;11.93;5.90;;;8.10;96.90;;;;;;4985470;28;20049;-74
2022/02/08 10:45:22;;;;;;;17.05;5.50;;;8.10;96.70;;;;;;4985066;28;20444;-74
2022/02/08 10:47:53;;;;;;;10.02;4.68;;;8.10;96.70;;;;;;4984510;28;20034;-74
2022/02/08 10:50:19;;;;;;;15.88;6.78;;;8.20;96.50;;;;;;4987124;28;20057;-74
2022/02/08 10:52:45;;;;;;;15.15;5.82;;;8.20;96.50;;;;;;4987901;28;20038;-74
2022/02/08 10:55:27;;;;;;;18.42;5.72;;;8.20;96.50;;;;;;4990051;28;20070;-74
2022/02/08 11:00:29;;;;;;;21.00;7.18;;;8.20;96.40;;;;;;4981557;28;20027;-73
2022/02/08 11:02:57;;;;;;;18.85;5.95;;;8.20;96.50;;;;;;4982521;28;20030;-74
2022/02/08 11:05:35;;;;;;;17.83;6.10;;;8.20;96.50;;;;;;4982127;28;20045;-73
2022/02/08 11:08:13;;;;;;;16.83;5.03;;;8.10;96.60;;;;;;4992469;28;20481;-73
2022/02/08 11:18:32;;;;;;;13.90;4.68;;;8.10;96.70;;;;;;4987163;28;20034;-73
2022/02/08 11:21:41;;;;;;;18.13;4.95;;;8.10;96.80;;;;;;4983288;28;20045;-73
2022/02/08 11:24:26;;;;;;;15.20;4.70;;;8.10;96.80;;;;;;4996412;28;20019;-73
2022/02/08 11:27:00;;;;;;;12.68;4.40;;;8.10;96.80;;;;;;4985183;28;20105;-73
2022/02/08 11:29:44;;;;;;;11.82;4.35;;;8.10;96.90;;;;;;4994522;28;20042;-73
2022/02/08 11:46:09;;;;;;;17.95;3.95;;;8.10;96.80;;;;;;4993507;28;20497;-75
2022/02/08 11:59:46;;;;;;;8.65;3.67;;;8.10;96.60;;;;;;4993786;28;20030;-73
2022/02/08 12:07:37;;;;;;;22.48;4.65;;;8.10;96.60;;;;;;4990904;28;20054;-73
2022/02/08 12:10:17;;;;;;;19.73;4.18;;;8.10;96.60;;;;;;4991926;28;20117;-73
2022/02/08 12:49:22;;;;;;;17.05;4.68;;;8.20;96.90;;;;;;4985936;28;20032;-73
2022/02/08 12:57:02;;;;;;;11.48;4.15;;;8.30;97.00;;;;;;4992690;28;20462;-73
2022/02/08 14:10:51;;;;;;;8.82;3.55;;;8.40;97.20;;;;;;4999600;28;20465;-73
2022/02/08 14:13:38;;;;;;;7.85;3.42;;;8.40;97.20;;;;;;4991937;28;20041;-73
2022/02/08 14:18:49;;;;;;;10.20;4.13;;;8.40;97.20;;;;;;5000974;28;20052;-73
2022/02/08 14:24:20;;;;;;;10.05;3.65;;;8.40;97.20;;;;;;4987375;28;20512;-73
2022/02/08 14:59:55;;;;;;;5.55;3.38;;;8.40;97.40;;;;;;4995669;28;20052;-75
2022/02/08 15:09:40;;;;;;;6.70;4.00;;;8.40;97.40;;;;;;4994903;28;20027;-75
2022/02/08 15:12:15;;;;;;;12.77;4.03;;;8.40;97.50;;;;;;4992725;28;20133;-75
2022/02/08 15:14:53;;;;;;;8.82;4.35;;;8.40;97.50;;;;;;4994442;28;20382;-75
2022/02/08 15:17:19;;;;;;;8.55;4.30;;;8.40;97.50;;;;;;4995739;28;20053;-73
2022/02/08 15:19:48;;;;;;;9.90;3.72;;;8.40;97.50;;;;;;4998536;28;20062;-72
2022/02/08 15:22:15;;;;;;;8.73;4.32;;;8.40;97.50;;;;;;4992288;28;20113;-72
2022/02/08 15:24:41;;;;;;;9.38;4.80;;;8.40;97.50;;;;;;4987836;28;20034;-73
2022/02/08 15:27:09;;;;;;;7.03;4.35;;;8.40;97.50;;;;;;5000936;28;20418;-73
2022/02/08 15:29:35;;;;;;;8.63;4.55;;;8.40;97.50;;;;;;4994259;28;20411;-73
2022/02/08 15:32:02;;;;;;;11.95;5.18;;;8.40;97.50;;;;;;4996321;28;20108;-73
2022/02/08 15:34:28;;;;;;;12.63;4.65;;;8.40;97.50;;;;;;4991894;28;20031;-73
2022/02/08 15:36:55;;;;;;;8.18;4.80;;;8.40;97.50;;;;;;4989592;28;20030;-73
2022/02/08 15:39:23;;;;;;;9.52;4.55;;;8.40;97.50;;;;;;4995044;28;20037;-73
2022/02/08 15:41:49;;;;;;;12.55;4.65;;;8.40;97.50;;;;;;4993377;28;20041;-73
2022/02/08 15:44:20;;;;;;;7.60;3.47;;;8.40;97.50;;;;;;4993579;28;20027;-73
2022/02/08 15:46:46;;;;;;;9.68;4.63;;;8.40;97.50;;;;;;5005001;28;20094;-73
2022/02/08 15:49:13;;;;;;;9.85;5.47;;;8.40;97.40;;;;;;4978897;28;20019;-73
2022/02/08 15:51:44;;;;;;;9.48;4.63;;;8.40;97.40;;;;;;4992733;28;20031;-73
2022/02/08 15:54:38;;;;;;;11.03;4.63;;;8.50;97.40;;;;;;4992102;28;20026;-73
2022/02/08 16:07:41;;;;;;;9.93;4.40;;;8.40;97.50;;;;;;4989872;28;20065;-73
2022/02/08 16:10:18;;;;;;;15.68;5.78;;;8.50;97.50;;;;;;4993057;28;20029;-73
2022/02/08 16:13:02;;;;;;;10.40;5.03;;;8.50;97.50;;;;;;4992761;28;20129;-73
2022/02/08 16:18:02;;;;;;;14.63;5.68;;;8.40;97.50;;;;;;4994594;28;20369;-73
2022/02/08 16:20:40;;;;;;;7.40;4.65;;;8.40;97.60;;;;;;4995511;28;20030;-73
2022/02/08 16:26:20;;;;;;;10.68;5.50;;;8.40;97.60;;;;;;4992804;28;20459;-73
2022/02/08 16:31:42;;;;;;;15.15;5.57;;;8.40;97.70;;;;;;4983648;28;20026;-73
2022/02/08 16:51:24;;;;;;;11.07;6.32;;;8.30;97.80;;;;;;4991980;28;20125;-73
2022/02/08 16:53:25;;;;;;;10.70;6.13;;;8.30;97.90;;;;;;4990864;28;20171;-73
2022/02/08 16:56:08;;;;;;;11.07;6.15;;;8.40;98.00;;;;;;5001432;28;20061;-73
2022/02/08 16:58:41;;;;;;;11.63;5.97;;;8.40;97.90;;;;;;4992333;28;20085;-73
2022/02/08 17:01:19;;;;;;;12.13;6.53;;;8.40;97.90;;;;;;4990922;28;20030;-73
2022/02/08 17:03:47;;;;;;;14.45;6.30;;;8.30;98.00;;;;;;4991833;28;20022;-73
2022/02/08 17:06:18;;;;;;;10.77;5.82;;;8.30;98.00;;;;;;4990662;28;20014;-73
2022/02/08 17:08:45;;;;;;;12.18;5.95;;;8.40;98.10;;;;;;4990798;28;20154;-73
2022/02/08 17:11:17;;;;;;;14.13;6.03;;;8.30;98.00;;;;;;4984745;28;20026;-73
2022/02/08 17:19:23;;;;;;;0.47;0.45;;;8.30;98.10;;;;;;4989462;28;20426;-73
2022/02/08 17:46:17;;;;;;;0.32;0.32;;;8.30;98.20;;;;;;4996794;28;20029;-72
2022/02/08 17:48:42;;;;;;;0.10;0.10;;;8.30;98.20;;;;;;4993578;28;20027;-74
2022/02/08 17:51:08;;;;;;;0.77;0.77;;;8.30;98.30;;;;;;4997565;28;20084;-73
2022/02/08 17:53:34;;;;;;;0.10;0.10;;;8.30;98.20;;;;;;4992707;28;20030;-74
2022/02/08 17:55:59;;;;;;;0.25;0.25;;;8.30;98.20;;;;;;4992624;28;20458;-73
2022/02/08 17:58:25;;;;;;;0.52;0.52;;;8.30;98.20;;;;;;4991928;28;20049;-73
2022/02/08 18:00:50;;;;;;;0.20;0.20;;;8.40;98.30;;;;;;4992102;28;20030;-73
2022/02/08 18:03:17;;;;;;;0.40;0.32;;;8.30;98.20;;;;;;4980568;28;20520;-73
2022/02/08 18:05:44;;;;;;;0.70;0.70;;;8.30;98.30;;;;;;4989024;28;20090;-73
2022/02/08 18:08:14;;;;;;;1.17;1.08;;;8.30;98.30;;;;;;4983788;28;20030;-73
2022/02/08 18:10:43;;;;;;;1.65;0.80;;;8.30;98.30;;;;;;4989709;28;20347;-73
2022/02/08 18:13:13;;;;;;;2.00;1.38;;;8.30;98.30;;;;;;4990782;28;20030;-73
2022/02/08 18:15:38;;;;;;;0.65;0.52;;;8.30;98.30;;;;;;4992503;28;20041;-73
2022/02/08 18:18:10;;;;;;;0.50;0.50;;;8.30;98.30;;;;;;4986634;28;20386;-72
2022/02/08 18:20:45;;;;;;;0.38;0.38;;;8.30;98.30;;;;;;4993540;28;20042;-73
2022/02/08 18:23:23;;;;;;;0.77;0.77;;;8.30;98.30;;;;;;4974985;28;20347;-73
2022/02/08 18:27:05;;;;;;;0.55;0.55;;;8.30;98.30;;;;;;4997719;28;20075;-73
2022/02/08 18:28:56;;;;;;;0.13;0.13;;;8.30;98.30;;;;;;4983093;28;20038;-72
2022/02/08 19:07:12;;;;;;;0.68;0.68;;;8.30;98.30;;;;;;4978644;28;20077;-73
2022/02/08 19:12:17;;;;;;;2.55;1.00;;;8.30;98.30;;;;;;4976108;28;20066;-74
2022/02/08 19:20:06;;;;;;;1.35;1.25;;;8.30;98.20;;;;;;4990249;28;20378;-74
2022/02/08 19:22:31;;;;;;;0.77;0.70;;;8.30;98.20;;;;;;4989421;28;20048;-75
2022/02/08 19:24:57;;;;;;;0.20;0.20;;;8.30;98.20;;;;;;5005070;28;20031;-74
2022/02/08 19:27:22;;;;;;;0.13;0.13;;;8.30;98.20;;;;;;4989576;28;20026;-74
2022/02/08 19:29:48;;;;;;;0.52;0.52;;;8.30;98.20;;;;;;4991323;28;20034;-73
2022/02/08 19:32:14;;;;;;;10.63;2.70;;;8.30;98.20;;;;;;4988662;28;20089;-74
2022/02/08 19:34:42;;;;;;;0.28;0.28;;;8.40;98.20;;;;;;4992068;28;20155;-75
2022/02/08 19:37:08;;;;;;;0.40;0.40;;;8.30;98.20;;;;;;4985565;28;20042;-74
2022/02/08 19:39:36;;;;;;;0.20;0.20;;;8.30;98.10;;;;;;4989558;28;20033;-75
2022/02/08 19:42:03;;;;;;;0.85;0.65;;;8.30;98.10;;;;;;4984963;28;20034;-73
2022/02/08 19:44:29;;;;;;;1.02;0.98;;;8.30;98.10;;;;;;4995381;28;20057;-74
2022/02/08 19:46:57;;;;;;;1.75;1.30;;;8.30;98.10;;;;;;5000261;28;20586;-74
2022/02/08 19:49:23;;;;;;;1.08;1.02;;;8.30;98.10;;;;;;5001788;28;20446;-74
2022/02/08 19:51:48;;;;;;;2.08;0.77;;;8.30;98.10;;;;;;4994179;28;20462;-73
2022/02/08 19:54:19;;;;;;;0.95;0.95;;;8.30;98.10;;;;;;4987639;28;20026;-75
2022/02/08 19:56:51;;;;;;;1.98;1.60;;;8.30;98.10;;;;;;4992006;28;20026;-74
2022/02/08 19:59:24;;;;;;;0.40;0.40;;;8.30;98.10;;;;;;4991062;28;20073;-74
2022/02/08 20:01:54;;;;;;;0.22;0.22;;;8.30;98.10;;;;;;4995202;28;20026;-74
2022/02/08 20:04:22;;;;;;;1.23;1.13;;;8.30;98.10;;;;;;4987116;28;20095;-73
2022/02/08 20:06:48;;;;;;;1.52;1.23;;;8.30;98.10;;;;;;4990901;28;20023;-73
2022/02/08 20:09:14;;;;;;;0.65;0.65;;;8.30;98.10;;;;;;4991582;28;20073;-72
2022/02/08 20:11:40;;;;;;;1.15;1.15;;;8.30;98.10;;;;;;4995519;28;20036;-73
2022/02/08 20:14:07;;;;;;;3.90;2.35;;;8.30;98.00;;;;;;4997268;28;20025;-73